Texas Logo

Irving, TX Single Family Real Estate Listings

372 Total Real Estate Listings * Click on table heading to sort
Date Posted Property Type Style Address Price Living Area Lot Size Price/Sq Ft.
2018-04-24 Single Family Traditional 8625 Forest Glen Drive Irving, TX 75063 $360,000 1,972 sq. ft. 4,792 sq. ft. $183
2018-04-23 Single Family Traditional 4215 Prado Court Irving, TX 75063 $553,394 3,033 sq. ft. 5,663 sq. ft. $182
2018-04-23 Single Family Traditional 1121 Colony Drive Irving, TX 75061 $267,500 2,685 sq. ft. 10,890 sq. ft. $100
2018-04-22 Single Family 1204 Colby Court Irving, TX 75060 $295,000 2,367 sq. ft. 5,227 sq. ft. $125
2018-04-22 Single Family Traditional 1216 Fair Oaks Drive Irving, TX 75060 $193,000 2,146 sq. ft. 7,405 sq. ft. $90
2018-04-22 Single Family Traditional 500 Reef Court Irving, TX 75060 $225,000 1,834 sq. ft. 10,454 sq. ft. $123
2018-04-21 Single Family Contemporary/Modern 3512 Colgate Lane Irving, TX 75062 $289,900 1,747 sq. ft. 7,841 sq. ft. $166
2018-04-20 Single Family Traditional 4920 Dominion Boulevard Irving, TX 75038 $439,000 3,034 sq. ft. 4,792 sq. ft. $145
2018-04-20 Single Family Contemporary/Modern 2109 Kimbrough Drive Irving, TX 75038 $1,249,000 5,905 sq. ft. 12,197 sq. ft. $212
2018-04-20 Single Family Contemporary/Modern 3713 Millswood Drive Irving, TX 75062 $315,000 2,218 sq. ft. 6,970 sq. ft. $142
2018-04-20 Single Family Traditional 3664 Coldstream Irving, TX 75063 $620,475 3,695 sq. ft. 5,663 sq. ft. $168
2018-04-20 Single Family Traditional 7750 Cooke Irving, TX 75063 $629,785 3,500 sq. ft. 5,663 sq. ft. $180
2018-04-20 Single Family Traditional 3349 Garrett Drive Irving, TX 75062 $419,900 3,235 sq. ft. 5,663 sq. ft. $130
2018-04-20 Single Family Traditional 504 Scotland Drive Irving, TX 75062 $298,500 1,983 sq. ft. $151
2018-04-20 Single Family Traditional 2810 Yale Street Irving, TX 75061 $175,000 1,224 sq. ft. 8,276 sq. ft. $143
2018-04-20 Single Family 4929 Longwood Court Irving, TX 75038 $299,999 2,026 sq. ft. 8,276 sq. ft. $148
2018-04-20 Single Family Traditional 120 Stonecreek Drive Irving, TX 75063 $379,800 2,434 sq. ft. 3,485 sq. ft. $156
2018-04-19 Single Family Traditional 9503 Vista Circle Irving, TX 75063 $405,000 2,530 sq. ft. 12,632 sq. ft. $160
2018-04-19 Single Family Mediterranean 601 Fiesta Circle Irving, TX 75063 $272,000 1,469 sq. ft. 7,405 sq. ft. $185
2018-04-19 Single Family Traditional 2322 Ridgewood Street Irving, TX 75062 $169,900 1,170 sq. ft. 8,276 sq. ft. $145
2018-04-19 Single Family Traditional 230 Steeplechase Drive Irving, TX 75062 $948,969 5,062 sq. ft. 13,504 sq. ft. $187
2018-04-19 Single Family Traditional 9422 Penny Lane Irving, TX 75063 $245,000 1,616 sq. ft. 3,920 sq. ft. $152
2018-04-19 Single Family Traditional 403 Old York Road Irving, TX 75063 $294,900 1,549 sq. ft. 3,920 sq. ft. $190
2018-04-18 Single Family Traditional 7525 Sweetgum Drive Irving, TX 75063 $475,000 3,355 sq. ft. 8,712 sq. ft. $142
2018-04-18 Single Family Mediterranean 6730 Plaza Irving, TX 75039 $369,000 2,216 sq. ft. 348,480 sq. ft. $167
2018-04-18 Single Family 1909 Woodoak Drive Irving, TX 75060 $210,000 1,820 sq. ft. 10,019 sq. ft. $115
2018-04-18 Single Family Traditional 10324 Offshore Drive Irving, TX 75063 $824,900 4,811 sq. ft. 6,534 sq. ft. $171
2018-04-18 Single Family Traditional 1608 Canyon Oaks Drive Irving, TX 75061 $385,000 3,545 sq. ft. 12,632 sq. ft. $109
2018-04-17 Single Family Traditional 700 Lamar Court Irving, TX 75038 $700,000 4,384 sq. ft. 13,939 sq. ft. $160
2018-04-17 Single Family Mediterranean 719 San Benito Irving, TX 75039 $439,900 2,266 sq. ft. 6,098 sq. ft. $194
2018-04-17 Single Family Traditional 3406 Princeton Drive Irving, TX 75062 $169,000 1,244 sq. ft. 8,276 sq. ft. $136
2018-04-17 Single Family Traditional 4108 Crest Ridge Drive Irving, TX 75061 $305,000 2,624 sq. ft. 5,227 sq. ft. $116
2018-04-17 Single Family Traditional 6209 Verbena Lane Irving, TX 75039 $652,900 4,111 sq. ft. 5,663 sq. ft. $159
2018-04-17 Single Family Traditional 6205 Verbena Trail Irving, TX 75063 $602,900 3,456 sq. ft. 5,663 sq. ft. $174
2018-04-17 Single Family Traditional 100 Midcrest Drive Irving, TX 75063 $339,900 1,927 sq. ft. 6,098 sq. ft. $176
2018-04-17 Single Family 2601 Anderson Street Irving, TX 75062 $210,000 1,452 sq. ft. 6,970 sq. ft. $145
2018-04-17 Single Family 522 Sandra Drive Irving, TX 75060 $189,000 1,647 sq. ft. 12,197 sq. ft. $115
2018-04-16 Single Family Traditional 3660 Coldstream Irving, TX 75063 $616,960 3,381 sq. ft. 5,663 sq. ft. $182
2018-04-16 Single Family Traditional 7747 Hollow Way Irving, TX 75063 $615,661 3,275 sq. ft. 5,663 sq. ft. $188
2018-04-16 Single Family 2719 Dewitt Street Irving, TX 75062 $198,000 1,732 sq. ft. 11,761 sq. ft. $114
2018-04-16 Single Family Traditional 7819 Uxbridge Irving, TX 75063 $626,556 3,381 sq. ft. 5,663 sq. ft. $185
2018-04-16 Single Family Traditional 3140 Ricci Lane Irving, TX 75062 $445,000 3,222 sq. ft. 5,227 sq. ft. $138
2018-04-16 Single Family 3815 Wind Cave Bend Irving, TX 75063 $618,000 3,608 sq. ft. 6,534 sq. ft. $171
2018-04-15 Single Family Traditional 3821 Old Faithful Court Irving, TX 75062 $249,900 1,602 sq. ft. 7,405 sq. ft. $156
2018-04-15 Single Family Mediterranean 1624 Camino Lago Irving, TX 75039 $495,900 3,152 sq. ft. 6,534 sq. ft. $157
2018-04-15 Single Family Traditional 205 Palacio Street Irving, TX 75039 $419,900 2,063 sq. ft. 3,485 sq. ft. $204
2018-04-14 Single Family 2531 Cunningham Street Irving, TX 75062 $183,000 1,617 sq. ft. 7,405 sq. ft. $113
2018-04-14 Single Family Traditional 2127 Hill Drive Irving, TX 75038 $499,900 3,010 sq. ft. 6,098 sq. ft. $166
2018-04-14 Single Family Traditional 2125 Texas Ash Drive Irving, TX 75063 $499,000 4,248 sq. ft. 8,712 sq. ft. $117
2018-04-14 Single Family 2009 Etain Road Irving, TX 75060 $185,000 1,278 sq. ft. 6,534 sq. ft. $145
2018-04-13 Single Family Traditional 6779 Palo Duro Drive Irving, TX 75063 $515,000 3,289 sq. ft. 3,920 sq. ft. $157
2018-04-13 Single Family 305 Larry Drive Irving, TX 75060 $190,000 1,149 sq. ft. 6,970 sq. ft. $165
2018-04-13 Single Family Traditional 7223 Canadian Drive Irving, TX 75039 $615,000 4,250 sq. ft. 10,019 sq. ft. $145
2018-04-13 Single Family Traditional 3409 Hidalgo Street Irving, TX 75062 $415,000 3,070 sq. ft. 11,326 sq. ft. $135
2018-04-13 Single Family Contemporary/Modern 621 Knight Lane Irving, TX 75060 $295,000 1,730 sq. ft. $171
2018-04-13 Single Family Contemporary/Modern 625 Knight Lane Irving, TX 75060 $295,000 1,730 sq. ft. $171
2018-04-13 Single Family Early American; Traditional 104 Woodland Drive Irving, TX 75060 $644,000 4,800 sq. ft. 126,760 sq. ft. $134
2018-04-13 Single Family Traditional 3931 Wind Cave Bend Irving, TX 75063 $539,900 3,236 sq. ft. 7,841 sq. ft. $167
2018-04-13 Single Family Traditional 1504 Nelson Drive Irving, TX 75038 $830,000 4,048 sq. ft. 14,810 sq. ft. $205
2018-04-13 Single Family Traditional 1514 Park Grove Drive Irving, TX 75060 $310,000 2,228 sq. ft. 7,405 sq. ft. $139
2018-04-13 Single Family Traditional 411 Abraham Court Irving, TX 75060 $271,700 1,900 sq. ft. 7,405 sq. ft. $143
2018-04-13 Single Family Traditional 3219 Woodbrook Court Irving, TX 75061 $220,000 1,844 sq. ft. 6,098 sq. ft. $119
2018-04-12 Single Family Mediterranean 7027 Nueces Drive Irving, TX 75039 $485,000 2,971 sq. ft. 4,792 sq. ft. $163
2018-04-12 Single Family Traditional 124 Guadalupe Drive Irving, TX 75039 $485,000 2,649 sq. ft. 6,534 sq. ft. $183
2018-04-12 Single Family Craftsman 8777 Sabine Court Irving, TX 75063 $480,000 3,158 sq. ft. 10,019 sq. ft. $152
2018-04-12 Single Family Traditional 5207 Montego Bay Drive Irving, TX 75038 $349,000 1,626 sq. ft. 4,356 sq. ft. $215
2018-04-12 Single Family Traditional 408 Juniper Lane Irving, TX 75063 $592,900 3,431 sq. ft. 5,663 sq. ft. $173
2018-04-12 Single Family Traditional 2035 Boxwood Drive Irving, TX 75063 $679,000 4,510 sq. ft. 14,375 sq. ft. $151
2018-04-12 Single Family A-Frame 7223 Arches Avenue Irving, TX 75063 $700,000 4,232 sq. ft. 8,712 sq. ft. $165
2018-04-11 Single Family Traditional 2314 11th Street Irving, TX 75060 $260,000 2,411 sq. ft. 6,970 sq. ft. $108
2018-04-11 Single Family Traditional 10212 Donley Drive Irving, TX 75063 $328,000 1,850 sq. ft. 6,970 sq. ft. $177
2018-04-11 Single Family Traditional 910 Ash Street Irving, TX 75060 $220,000 3,012 sq. ft. 11,761 sq. ft. $73
2018-04-11 Single Family Traditional 1621 Ronne Drive Irving, TX 75060 $202,500 1,686 sq. ft. 7,405 sq. ft. $120
2018-04-10 Single Family Traditional 1420 Travis Circle Irving, TX 75038 $549,000 3,642 sq. ft. 13,068 sq. ft. $151
2018-04-10 Single Family Traditional 301 Thompson Street Irving, TX 75061 $230,000 2,971 sq. ft. 10,454 sq. ft. $77
2018-04-10 Single Family 2019 Wilshire Drive Irving, TX 75061 $155,000 1,251 sq. ft. 2,614 sq. ft. $124
2018-04-10 Single Family Traditional 128 Spear Court Irving, TX 75063 $439,000 2,676 sq. ft. 5,663 sq. ft. $164
2018-04-09 Single Family Ranch 1608 Meadow Valley Irving, TX 75060 $199,900 2,079 sq. ft. 9,583 sq. ft. $96
2018-04-09 Single Family Traditional 1011 Belew Street Irving, TX 75061 $205,000 1,431 sq. ft. 7,841 sq. ft. $143
2018-04-09 Single Family Traditional 231 Heatherwood Drive Irving, TX 75063 $369,900 2,569 sq. ft. 3,920 sq. ft. $144
2018-04-09 Single Family 6726 Deleon Street Irving, TX 75039 $465,000 2,733 sq. ft. 4,356 sq. ft. $170
2018-04-07 Single Family Traditional 1640 Park Grove Drive Irving, TX 75060 $198,500 1,395 sq. ft. 6,098 sq. ft. $142
2018-04-07 Single Family French 2104 Hill Drive Irving, TX 75038 $459,900 3,098 sq. ft. 6,534 sq. ft. $148
2018-04-07 Single Family Traditional 1111 Pedernales Trail Irving, TX 75063 $444,900 3,054 sq. ft. 6,098 sq. ft. $146
2018-04-06 Single Family Contemporary/Modern 300 Skystone Drive Irving, TX 75038 $500,000 2,500 sq. ft. 3,049 sq. ft. $200
2018-04-06 Single Family Traditional 606 Raton Pass Irving, TX 75063 $305,000 1,834 sq. ft. 7,405 sq. ft. $166
2018-04-06 Single Family Traditional 1018 Alexander Street Irving, TX 75061 $199,880 1,392 sq. ft. 9,148 sq. ft. $144
2018-04-06 Single Family Traditional 1009 Stone Gate Drive Irving, TX 75063 $375,000 2,463 sq. ft. 13,939 sq. ft. $152
2018-04-06 Single Family Traditional 1920 Pebblebrook Trail Irving, TX 75060 $145,000 1,250 sq. ft. 6,970 sq. ft. $116
2018-04-06 Single Family 2226 Concord Drive Irving, TX 75061 $195,000 1,537 sq. ft. 8,712 sq. ft. $127
2018-04-06 Single Family Traditional 1521 Cottonwood Valley Circle Irving, TX 75038 $1,100,000 5,153 sq. ft. 14,810 sq. ft. $213
2018-04-06 Single Family Colonial 300 Middlefork Irving, TX 75063 $259,599 1,680 sq. ft. 2,614 sq. ft. $155
2018-04-06 Single Family Traditional 1529 High Crest Court Irving, TX 75061 $269,000 2,094 sq. ft. 5,663 sq. ft. $128
2018-04-06 Single Family Traditional 501 Surry Circle Irving, TX 75061 $210,000 1,740 sq. ft. 9,148 sq. ft. $121
2018-04-06 Single Family Ranch 2612 Helmet Street Irving, TX 75060 $145,800 1,666 sq. ft. 6,534 sq. ft. $88
2018-04-05 Single Family Traditional 7400 Marigold Drive Irving, TX 75063 $507,000 3,888 sq. ft. 8,712 sq. ft. $130
2018-04-05 Single Family Traditional 527 Renaissance Lane Irving, TX 75060 $399,900 2,264 sq. ft. 6,970 sq. ft. $177
2018-04-05 Single Family Traditional 1519 Sunnybrook Drive Irving, TX 75061 $300,000 2,457 sq. ft. 11,761 sq. ft. $122
2018-04-05 Single Family Traditional 1813 Puritan Drive Irving, TX 75061 $259,900 2,078 sq. ft. 9,148 sq. ft. $125
2018-04-05 Single Family Traditional 924 Old Mill Circle Irving, TX 75061 $239,990 1,810 sq. ft. 6,970 sq. ft. $133
2018-04-05 Single Family Traditional 701 Marble Canyon Circle Irving, TX 75063 $308,000 1,920 sq. ft. 4,792 sq. ft. $160
2018-04-04 Single Family Traditional 7215 Marigold Drive Irving, TX 75063 $699,000 4,001 sq. ft. 9,583 sq. ft. $175
2018-04-04 Single Family 222 Larry Drive Irving, TX 75060 $185,000 1,164 sq. ft. 12,197 sq. ft. $159
2018-04-04 Single Family Mid-Century Modern 3911 Fox Glen Drive Irving, TX 75062 $1,015,000 5,298 sq. ft. 21,344 sq. ft. $192
2018-04-04 Single Family Traditional 203 Moss Hill Road Irving, TX 75063 $314,000 1,835 sq. ft. 6,098 sq. ft. $171
2018-04-04 Single Family Traditional 8630 Forest Glen Drive Irving, TX 75063 $329,900 1,939 sq. ft. 3,920 sq. ft. $170
2018-04-04 Single Family Traditional 200 Island Court Irving, TX 75060 $185,000 1,567 sq. ft. 10,454 sq. ft. $118
2018-04-03 Single Family French; Traditional 2115 Hill Drive Irving, TX 75038 $450,000 2,261 sq. ft. 6,098 sq. ft. $199
2018-04-03 Single Family Traditional 1710 Marie Lane Irving, TX 75060 $170,000 1,236 sq. ft. 8,276 sq. ft. $138
2018-04-03 Single Family Traditional 200 Hunt Drive Irving, TX 75062 $825,000 7,782 sq. ft. 31,363 sq. ft. $106
2018-04-03 Single Family Ranch; Traditional 2702 Game Lake Drive Irving, TX 75060 $169,900 1,149 sq. ft. 5,227 sq. ft. $148
2018-04-02 Single Family Traditional 320 Old York Road Irving, TX 75063 $395,000 2,401 sq. ft. 4,792 sq. ft. $165
2018-04-02 Single Family Mediterranean 808 Valencia Boulevard Irving, TX 75039 $530,000 2,722 sq. ft. 6,534 sq. ft. $195
2018-04-02 Single Family Traditional 1928 Puritan Drive Irving, TX 75061 $195,000 1,422 sq. ft. 9,148 sq. ft. $137
2018-04-02 Single Family Traditional 2328 Southern Oak Drive Irving, TX 75063 $474,999 3,363 sq. ft. 7,405 sq. ft. $141
2018-04-02 Single Family Traditional 2536 Wells Road Irving, TX 75061 $250,000 2,180 sq. ft. 11,761 sq. ft. $115
2018-04-01 Single Family Traditional 9812 Canyon Crest Circle Irving, TX 75063 $480,000 3,228 sq. ft. 10,890 sq. ft. $149
2018-03-31 Single Family Tudor 7320 Reverchon Drive Irving, TX 75063 $771,027 4,123 sq. ft. 8,276 sq. ft. $187
2018-03-31 Single Family Traditional 615 Balboa Street Irving, TX 75062 $429,900 3,463 sq. ft. 16,553 sq. ft. $124
2018-03-31 Single Family Spanish; Traditional 7012 Comal Drive Irving, TX 75039 $500,000 2,886 sq. ft. 4,792 sq. ft. $173
2018-03-31 Single Family Traditional 2914 Rochelle Road Irving, TX 75062 $197,000 1,337 sq. ft. 6,970 sq. ft. $147
2018-03-31 Single Family 2416 Pebblebrook Trail Irving, TX 75060 $164,900 1,144 sq. ft. 6,098 sq. ft. $144
2018-03-31 Single Family 3004 Stallion Crossing Irving, TX 75060 $339,054 2,739 sq. ft. 7,841 sq. ft. $124
2018-03-30 Single Family Traditional 8715 Stonecrest Drive Irving, TX 75063 $349,900 2,107 sq. ft. 3,920 sq. ft. $166
2018-03-30 Single Family Mediterranean; Spanish 731 Arbol Irving, TX 75039 $430,000 2,591 sq. ft. 4,356 sq. ft. $166
2018-03-30 Single Family English 1803 Driskill Drive Irving, TX 75038 $899,000 5,937 sq. ft. 17,424 sq. ft. $151
2018-03-30 Single Family Traditional 2223 Cochran Street Irving, TX 75062 $160,000 1,057 sq. ft. 6,970 sq. ft. $151
2018-03-30 Single Family Traditional 2016 Shumard Oak Irving, TX 75063 $647,000 4,172 sq. ft. 10,890 sq. ft. $155
2018-03-30 Single Family Contemporary/Modern 1751 Sunnybrook Drive Irving, TX 75061 $285,000 1,737 sq. ft. 10,890 sq. ft. $164
2018-03-30 Single Family Traditional 100 Evening Star Court Irving, TX 75063 $260,000 1,648 sq. ft. 6,534 sq. ft. $158
2018-03-30 Single Family Traditional 525 Rawls Circle Irving, TX 75061 $199,900 1,304 sq. ft. 3,485 sq. ft. $153
2018-03-30 Single Family Traditional 833 Canyon Crest Drive Irving, TX 75063 $425,000 2,782 sq. ft. 10,890 sq. ft. $153
2018-03-29 Single Family Traditional 4504 Windsor Ridge Drive Irving, TX 75038 $1,899,970 6,186 sq. ft. 16,988 sq. ft. $307
2018-03-29 Single Family Traditional 401 15th Street Irving, TX 75060 $174,999 1,264 sq. ft. 7,841 sq. ft. $138
2018-03-29 Single Family 1408 Katy Drive Irving, TX 75061 $329,900 2,121 sq. ft. 8,712 sq. ft. $156
2018-03-29 Single Family 2023 Hill Drive Irving, TX 75038 $550,000 3,880 sq. ft. 6,098 sq. ft. $142
2018-03-29 Single Family Ranch 1024 Rocky Lane Irving, TX 75060 $175,000 2,224 sq. ft. 10,019 sq. ft. $79
2018-03-29 Single Family Traditional 1710 8th Street Irving, TX 75060 $270,000 1,804 sq. ft. $150
2018-03-29 Single Family Traditional 4147 Lassen Lane Irving, TX 75063 $714,280 4,163 sq. ft. 7,841 sq. ft. $172
2018-03-29 Single Family Mediterranean 7028 Angelina Drive Irving, TX 75039 $450,000 2,763 sq. ft. 4,356 sq. ft. $163
2018-03-29 Single Family Traditional 112 Heatherstone Drive Irving, TX 75063 $374,900 2,444 sq. ft. 4,792 sq. ft. $153
2018-03-28 Single Family Traditional 1814 Dunning Street Irving, TX 75061 $144,900 1,283 sq. ft. 7,405 sq. ft. $113
2018-03-28 Single Family Traditional 4151 Lassen Lane Irving, TX 75063 $750,974 4,383 sq. ft. 9,148 sq. ft. $171
2018-03-28 Single Family Traditional 615 Brookstone Drive Irving, TX 75039 $720,000 3,762 sq. ft. 6,534 sq. ft. $191
2018-03-28 Single Family 327 Chandan Way Irving, TX 75063 $799,209 3,872 sq. ft. 6,534 sq. ft. $206
2018-03-28 Single Family Ranch 1807 Dale Place Irving, TX 75061 $139,900 1,328 sq. ft. 6,534 sq. ft. $105
2018-03-28 Single Family Ranch; Traditional 914 Joslin Street Irving, TX 75060 $159,900 1,373 sq. ft. 6,970 sq. ft. $116
2018-03-27 Single Family Traditional 3604 Pleasant Run Road Irving, TX 75062 $195,000 1,379 sq. ft. 7,405 sq. ft. $141
2018-03-27 Single Family Traditional 9006 Dillon Trail Irving, TX 75063 $419,900 2,425 sq. ft. 4,356 sq. ft. $173
2018-03-27 Single Family English 126 Santa Rosa Way Irving, TX 75062 $769,900 3,879 sq. ft. 8,712 sq. ft. $198
2018-03-27 Single Family Traditional 9435 Blue Jay Way Irving, TX 75063 $279,000 1,680 sq. ft. 3,049 sq. ft. $166
2018-03-24 Single Family 2305 Grauwyler Road Irving, TX 75061 $90,000 1,244 sq. ft. 10,019 sq. ft. $72
2018-03-24 Single Family Traditional 215 Palacio Street Irving, TX 75039 $425,000 2,602 sq. ft. 3,485 sq. ft. $163
2018-03-23 Single Family Traditional 4018 Double Oak Lane Irving, TX 75061 $229,000 1,885 sq. ft. 6,970 sq. ft. $121
2018-03-23 Single Family Ranch 2514 Glen Court Irving, TX 75062 $224,900 1,659 sq. ft. 20,473 sq. ft. $136
2018-03-23 Single Family Traditional 6816 Prompton Bend Irving, TX 75063 $494,025 3,206 sq. ft. 3,920 sq. ft. $154
2018-03-23 Single Family 2703 Alan A Dale Irving, TX 75061 $205,000 2,272 sq. ft. 10,454 sq. ft. $90
2018-03-23 Single Family Traditional 650 Brookstone Drive Irving, TX 75039 $739,000 3,863 sq. ft. 6,970 sq. ft. $191
2018-03-23 Single Family Traditional 6812 Prompton Bend Irving, TX 75063 $492,264 3,174 sq. ft. 3,920 sq. ft. $155
2018-03-23 Single Family Traditional 3737 Chime Street Irving, TX 75062 $225,000 1,495 sq. ft. 10,890 sq. ft. $150
2018-03-23 Single Family Traditional 3335 Denali Drive Irving, TX 75063 $615,000 3,160 sq. ft. 13,939 sq. ft. $195
2018-03-23 Single Family Traditional 1028 Old Mill Circle Irving, TX 75061 $265,000 1,869 sq. ft. 7,841 sq. ft. $142
2018-03-23 Single Family Traditional 10200 Donley Drive Irving, TX 75063 $389,700 2,646 sq. ft. 9,583 sq. ft. $147
2018-03-23 Single Family 3925 Greenhills Court Irving, TX 75038 $330,000 3,101 sq. ft. 13,939 sq. ft. $106
2018-03-22 Single Family Traditional 300 Stoneledge Irving, TX 75063 $225,000 1,334 sq. ft. 1,742 sq. ft. $169
2018-03-22 Single Family 748 Rockingham Drive Irving, TX 75063 $374,900 2,632 sq. ft. 2,614 sq. ft. $142
2018-03-22 Single Family Traditional 2613 Squire Street Irving, TX 75062 $199,000 1,618 sq. ft. 15,682 sq. ft. $123
2018-03-22 Single Family Traditional 401 Waterside Drive Irving, TX 75063 $449,900 2,533 sq. ft. 4,792 sq. ft. $178
2018-03-22 Single Family Mediterranean 6415 San Saba Irving, TX 75039 $397,000 1,788 sq. ft. 4,356 sq. ft. $222
2018-03-22 Single Family 627 Elaine Drive Irving, TX 75060 $159,900 1,158 sq. ft. 13,939 sq. ft. $138
2018-03-22 Single Family Traditional 712 Cimarron Trail Irving, TX 75063 $354,999 2,226 sq. ft. 6,534 sq. ft. $159
2018-03-22 Single Family Traditional 211 Wellington Road Irving, TX 75063 $292,500 1,524 sq. ft. 4,356 sq. ft. $192
2018-03-22 Single Family Contemporary/Modern 1721 Landmark Road Irving, TX 75060 $295,000 3,113 sq. ft. 13,504 sq. ft. $95
2018-03-21 Single Family 2110 Hill Drive Irving, TX 75038 $511,000 3,386 sq. ft. 7,405 sq. ft. $151
2018-03-21 Single Family 7856 Renderbrook Bend Irving, TX 75063 $565,000 3,668 sq. ft. 10,890 sq. ft. $154
2018-03-21 Single Family Traditional 1808 Cooper Drive Irving, TX 75061 $216,000 1,948 sq. ft. 10,890 sq. ft. $111
2018-03-21 Single Family Traditional 417 Lakeside Drive Irving, TX 75062 $175,000 1,821 sq. ft. 10,890 sq. ft. $96
2018-03-21 Single Family 2321 Mcclure Irving, TX 75062 $138,000 912 sq. ft. 6,970 sq. ft. $151
2018-03-21 Single Family Traditional 312 Scotland Drive Irving, TX 75062 $215,000 2,041 sq. ft. 10,019 sq. ft. $105
2018-03-21 Single Family Traditional 4212 Las Brisas Drive Irving, TX 75038 $444,000 3,596 sq. ft. 13,068 sq. ft. $123
2018-03-21 Single Family A-Frame 2612 Quail Valley Irving, TX 75060 $249,900 1,701 sq. ft. 8,712 sq. ft. $147
2018-03-20 Single Family Traditional 1430 Ranch Hill Drive Irving, TX 75063 $485,000 3,438 sq. ft. 6,970 sq. ft. $141
2018-03-20 Single Family Traditional 4211 Prado Court Irving, TX 75063 $591,660 3,539 sq. ft. 7,841 sq. ft. $167
2018-03-20 Single Family Traditional 4219 Prado Court Irving, TX 75063 $478,201 2,054 sq. ft. 5,663 sq. ft. $233
2018-03-20 Single Family 1505 Cottonwood Valley Circle Irving, TX 75038 $1,375,000 6,280 sq. ft. 23,958 sq. ft. $219
2018-03-20 Single Family Traditional 1820 Bolden Road Irving, TX 75060 $215,000 1,808 sq. ft. 6,970 sq. ft. $119
2018-03-20 Single Family Traditional 3635 Crosby Street Irving, TX 75038 $439,000 2,755 sq. ft. 4,356 sq. ft. $159
2018-03-20 Single Family Traditional 3639 Crosby Street Irving, TX 75038 $419,000 2,557 sq. ft. 4,356 sq. ft. $164
2018-03-19 Single Family 3539 Calico Irving, TX 75038 $485,455 2,962 sq. ft. $164
2018-03-19 Single Family 3436 Poinsettia Irving, TX 75038 $487,471 2,950 sq. ft. $165
2018-03-19 Single Family Mediterranean; Traditional 623 Rancho Circle Irving, TX 75063 $295,000 1,594 sq. ft. 5,663 sq. ft. $185
2018-03-18 Single Family 3535 Calico Irving, TX 75038 $519,633 3,305 sq. ft. $157
2018-03-18 Single Family 3531 Calico Irving, TX 75038 $530,199 3,600 sq. ft. $147
2018-03-18 Single Family Traditional 8745 Rugby Drive Irving, TX 75063 $399,000 3,075 sq. ft. 7,405 sq. ft. $130
2018-03-18 Single Family 2706 Dewitt Street Irving, TX 75062 $219,900 1,427 sq. ft. 6,970 sq. ft. $154
2018-03-17 Single Family 1224 Janell Drive Irving, TX 75062 $136,000 2,118 sq. ft. 6,098 sq. ft. $64
2018-03-17 Single Family 611 Brookstone Drive Irving, TX 75039 $720,000 3,898 sq. ft. 6,534 sq. ft. $185
2018-03-16 Single Family 1915 Wendy Street Irving, TX 75060 $150,000 1,741 sq. ft. 6,534 sq. ft. $86
2018-03-16 Single Family Traditional 2733 Anderson Street Irving, TX 75062 $187,000 1,560 sq. ft. 7,405 sq. ft. $120
2018-03-16 Single Family Traditional 837 Terraza Irving, TX 75039 $515,000 3,455 sq. ft. 5,663 sq. ft. $149
2018-03-16 Single Family Traditional 500 Ginkgo Circle Irving, TX 75063 $499,000 4,393 sq. ft. 12,632 sq. ft. $114
2018-03-16 Single Family Traditional 1115 Katelyn Court Irving, TX 75060 $379,900 2,650 sq. ft. 6,098 sq. ft. $143
2018-03-16 Single Family Traditional 1308 Katelyn Court Irving, TX 75060 $389,900 2,650 sq. ft. 6,534 sq. ft. $147
2018-03-16 Single Family Mediterranean 647 Lake Point Drive Irving, TX 75039 $1,175,000 5,654 sq. ft. 12,632 sq. ft. $208
2018-03-16 Single Family Traditional 9007 Saddlehorn Drive Irving, TX 75063 $299,000 2,172 sq. ft. 4,792 sq. ft. $138
2018-03-16 Single Family Traditional 2223 Creekside Circle Irving, TX 75063 $455,000 3,763 sq. ft. 10,019 sq. ft. $121
2018-03-16 Single Family Traditional 1219 Willowdale Lane Irving, TX 75063 $489,900 3,732 sq. ft. 8,712 sq. ft. $131
2018-03-15 Single Family Mediterranean 4535 Byron Circle Irving, TX 75038 $1,395,000 5,218 sq. ft. 12,197 sq. ft. $267
2018-03-15 Single Family Traditional 7729 Sumac Irving, TX 75063 $542,500 3,950 sq. ft. 6,970 sq. ft. $137
2018-03-15 Single Family Traditional 204 Rochelle Boulevard Irving, TX 75062 $425,000 2,416 sq. ft. 16,553 sq. ft. $176
2018-03-15 Single Family Traditional 2703 Waterford Drive Irving, TX 75063 $399,900 2,881 sq. ft. 6,098 sq. ft. $139
2018-03-15 Single Family Traditional 2113 Meadow Glen Irving, TX 75060 $189,900 1,213 sq. ft. 6,970 sq. ft. $157
2018-03-14 Single Family Traditional 7912 Keeneland Court Irving, TX 75063 $591,900 3,421 sq. ft. 4,792 sq. ft. $173
2018-03-14 Single Family 2705 Cunningham Street Irving, TX 75062 $180,000 1,301 sq. ft. 6,970 sq. ft. $138
2018-03-14 Single Family 8917 Lakewood Drive Irving, TX 75063 $364,900 2,614 sq. ft. 4,792 sq. ft. $140
2018-03-13 Single Family Traditional 1601 Crockett Circle Irving, TX 75038 $795,000 4,408 sq. ft. 15,682 sq. ft. $180
2018-03-13 Single Family 1914 Finley Road Irving, TX 75062 $179,500 1,518 sq. ft. 7,405 sq. ft. $118
2018-03-12 Single Family Contemporary/Modern 510 Goodyear Street Irving, TX 75062 $135,900 1,247 sq. ft. $109
2018-03-12 Single Family Mediterranean 4719 Byron Circle Irving, TX 75038 $930,000 4,473 sq. ft. 10,454 sq. ft. $208
2018-03-12 Single Family Ranch 1221 Lakeridge Lane Irving, TX 75063 $399,000 2,852 sq. ft. 9,148 sq. ft. $140
2018-03-12 Single Family Traditional 1017 Sleepy Hollow Drive Irving, TX 75061 $275,000 2,098 sq. ft. 12,197 sq. ft. $131
2018-03-12 Single Family Traditional 3043 Cross Timbers Drive Irving, TX 75060 $259,900 1,878 sq. ft. 6,534 sq. ft. $138
2018-03-12 Single Family 1825 Cunningham Street Irving, TX 75062 $175,000 1,289 sq. ft. 7,405 sq. ft. $136
2018-03-09 Single Family Mediterranean 4759 Byron Circle Irving, TX 75038 $975,000 5,257 sq. ft. 9,583 sq. ft. $185
2018-03-09 Single Family Colonial 1501 Bonham Court Irving, TX 75038 $599,500 3,290 sq. ft. 16,988 sq. ft. $182
2018-03-09 Single Family Traditional 1316 Balleywood Road Irving, TX 75060 $180,000 1,033 sq. ft. 38,768 sq. ft. $174
2018-03-09 Single Family Traditional 3615 Hathaway Court Irving, TX 75062 $464,990 2,691 sq. ft. 8,276 sq. ft. $173
2018-03-09 Single Family Traditional 8520 Wellington Point Drive Irving, TX 75063 $350,000 2,172 sq. ft. 4,792 sq. ft. $161
2018-03-09 Single Family Ranch 3813 Wingren Drive Irving, TX 75062 $519,990 3,580 sq. ft. 16,117 sq. ft. $145
2018-03-08 Single Family 1309 Katy Drive Irving, TX 75061 $199,000 1,542 sq. ft. 8,276 sq. ft. $129
2018-03-08 Single Family 2704 Deeplake Court Irving, TX 75060 $190,000 1,548 sq. ft. 6,970 sq. ft. $123
2018-03-08 Single Family Traditional 9720 Cliffside Drive Irving, TX 75063 $430,000 3,189 sq. ft. 7,841 sq. ft. $135
2018-03-07 Single Family Traditional 3623 Crosby Street Irving, TX 75038 $414,293 2,474 sq. ft. 4,356 sq. ft. $167
2018-03-06 Single Family Traditional 9419 Vista Circle Irving, TX 75063 $410,000 2,596 sq. ft. 9,583 sq. ft. $158
2018-03-06 Single Family Traditional 277 Melrose Avenue Irving, TX 75039 $560,000 3,349 sq. ft. 6,970 sq. ft. $167
2018-03-06 Single Family 2102 Northgate Drive Irving, TX 75062 $249,900 1,734 sq. ft. 8,712 sq. ft. $144
2018-03-05 Single Family Traditional; Tudor 307 Steeplechase Drive Irving, TX 75062 $950,000 4,423 sq. ft. 18,731 sq. ft. $215
2018-03-03 Single Family Traditional 311 Jefferson Street Irving, TX 75061 $195,000 1,083 sq. ft. 12,632 sq. ft. $180
2018-03-02 Single Family Traditional 3643 Crosby Street Irving, TX 75038 $379,000 2,472 sq. ft. 4,356 sq. ft. $153
2018-03-02 Single Family Mediterranean; Spanish 847 San Clemente Irving, TX 75039 $625,000 3,388 sq. ft. 3,920 sq. ft. $184
2018-03-02 Single Family Contemporary/Modern 3112 Hidalgo Street Irving, TX 75062 $350,000 2,724 sq. ft. 10,019 sq. ft. $128
2018-03-02 Single Family Traditional 3711 Venice Drive Irving, TX 75038 $295,000 1,854 sq. ft. 3,920 sq. ft. $159
2018-03-01 Single Family Mediterranean 4215 Saint Andrews Boulevard Irving, TX 75038 $1,198,000 4,626 sq. ft. 7,405 sq. ft. $259
2018-03-01 Single Family Ranch 1707 Post Oak Drive Irving, TX 75061 $340,000 3,157 sq. ft. 11,761 sq. ft. $108
2018-03-01 Single Family Traditional 700 Sundance Circle Irving, TX 75063 $324,900 1,901 sq. ft. 6,534 sq. ft. $171
2018-02-28 Single Family Traditional 3723 Crosby Street Irving, TX 75038 $430,349 2,623 sq. ft. $164
2018-02-28 Single Family Traditional 2129 Druid Drive Irving, TX 75060 $190,000 1,482 sq. ft. 7,405 sq. ft. $128
2018-02-27 Single Family Traditional 3012 Esters Court Irving, TX 75062 $235,000 1,551 sq. ft. 7,405 sq. ft. $152
2018-02-27 Single Family 1430 Shady Grove Road Irving, TX 75060 $265,000 5,308 sq. ft. 6,970 sq. ft. $50
2018-02-27 Single Family 1101 Briar Oaks Drive Irving, TX 75060 $189,900 1,889 sq. ft. 6,534 sq. ft. $101
2018-02-27 Single Family Traditional 310 Northgate Drive Irving, TX 75062 $536,750 3,935 sq. ft. 22,216 sq. ft. $136
2018-02-27 Single Family Mediterranean 4504 Redwood Court Irving, TX 75038 $850,000 4,439 sq. ft. 23,958 sq. ft. $191
2018-02-27 Single Family Traditional 419 Juniper Lane Irving, TX 75063 $574,900 2,995 sq. ft. 6,534 sq. ft. $192
2018-02-27 Single Family Traditional 4144 Buckner Avenue Irving, TX 75063 $721,320 3,723 sq. ft. 7,841 sq. ft. $194
2018-02-27 Single Family Traditional 4123 Lassen Lane Irving, TX 75063 $735,531 4,419 sq. ft. 7,841 sq. ft. $166
2018-02-27 Single Family 3904 Tally Ho Drive Irving, TX 75062 $999,900 8,225 sq. ft. 19,602 sq. ft. $122
2018-02-27 Single Family Contemporary/Modern 4904 Cloudcroft Lane Irving, TX 75038 $500,000 2,418 sq. ft. 5,663 sq. ft. $207
2018-02-27 Single Family Traditional 663 Brookstone Drive Irving, TX 75039 $849,000 4,013 sq. ft. 10,019 sq. ft. $212
2018-02-27 Single Family Traditional; Tudor 7316 Reverchon Drive Irving, TX 75063 $749,944 3,777 sq. ft. 7,841 sq. ft. $199
2018-02-27 Single Family 3440 Poinsettia Irving, TX 75038 $543,102 3,707 sq. ft. $147
2018-02-27 Single Family Traditional 4405 Windsor Ridge Drive Irving, TX 75038 $839,900 5,267 sq. ft. 11,326 sq. ft. $159
2018-02-27 Single Family Traditional 5543 Claiborne Court Irving, TX 75039 $602,945 3,520 sq. ft. 5,663 sq. ft. $171
2018-02-27 Single Family Traditional; Tudor 2105 Hill Drive Irving, TX 75038 $529,000 3,603 sq. ft. 6,534 sq. ft. $147
2018-02-27 Single Family Mediterranean 600 Travis Court Irving, TX 75038 $1,099,000 4,922 sq. ft. 16,117 sq. ft. $223
2018-02-27 Single Family Contemporary/Modern; Mediterranean 4323 Saint Andrews Boulevard Irving, TX 75038 $999,000 3,798 sq. ft. 7,405 sq. ft. $263
2018-02-27 Single Family Traditional 415 Juniper Lane Irving, TX 75063 $577,900 3,195 sq. ft. 7,405 sq. ft. $181
2018-02-27 Single Family 7119 Arches Avenue Irving, TX 75063 $615,000 3,692 sq. ft. 7,841 sq. ft. $167
2018-02-27 Single Family Traditional 5547 Claiborne Court Irving, TX 75039 $581,340 3,479 sq. ft. 5,663 sq. ft. $167
2018-02-27 Single Family Traditional 5539 Claiborne Court Irving, TX 75039 $599,305 3,452 sq. ft. 5,663 sq. ft. $174
2018-02-27 Single Family Traditional 5551 Claiborne Court Irving, TX 75039 $568,610 3,293 sq. ft. 5,663 sq. ft. $173
2018-02-27 Single Family French; Traditional 1600 Nelson Drive Irving, TX 75038 $2,675,000 10,157 sq. ft. 34,412 sq. ft. $263
2018-02-27 Single Family 4835 Isleworth Drive Irving, TX 75038 $500,422 2,222 sq. ft. $225
2018-02-27 Single Family Traditional 6800 Prompton Bend Irving, TX 75063 $484,632 3,039 sq. ft. $159
2018-02-27 Single Family Mid-Century Modern; Traditional 603 Stone Canyon Drive Irving, TX 75063 $400,000 2,260 sq. ft. 6,534 sq. ft. $177
2018-02-27 Single Family Traditional 9443 Abbey Road Irving, TX 75063 $370,000 2,830 sq. ft. 4,792 sq. ft. $131
2018-02-27 Single Family Traditional 6843 Prompton Bend Irving, TX 75063 $488,445 2,646 sq. ft. 3,920 sq. ft. $185
2018-02-27 Single Family Traditional Irving, TX $439,200 3,109 sq. ft. 6,098 sq. ft. $141
2018-02-27 Single Family Traditional 4831 Isleworth Drive Irving, TX 75038 $487,623 2,355 sq. ft. $207
2018-02-27 Single Family Contemporary/Modern; Traditional 2509 Skyline Drive Irving, TX 75038 $280,000 2,791 sq. ft. 20,909 sq. ft. $100
2018-02-27 Single Family Traditional 436 Lacebark Drive Irving, TX 75063 $433,900 3,060 sq. ft. 4,792 sq. ft. $142
2018-02-27 Single Family Traditional 3830 Double Tree Trail Irving, TX 75061 $224,900 1,686 sq. ft. 6,970 sq. ft. $133
2018-02-27 Single Family Traditional 3623 Chime Place Irving, TX 75062 $229,900 1,716 sq. ft. 7,405 sq. ft. $134
2018-02-27 Single Family Traditional 3603 Canary Drive Irving, TX 75062 $234,001 1,824 sq. ft. 9,148 sq. ft. $128
2018-02-27 Single Family Traditional 1509 High Crest Court Irving, TX 75061 $259,900 1,924 sq. ft. 5,227 sq. ft. $135
2018-02-27 Single Family Traditional 4101 Astoria Street Irving, TX 75062 $235,000 1,643 sq. ft. 9,148 sq. ft. $143
2018-02-27 Single Family 1548 John Smith Drive Irving, TX 75061 $268,500 2,287 sq. ft. 7,405 sq. ft. $117
2018-02-27 Single Family Traditional 2600 Avenida Loop Irving, TX 75062 $260,000 3,100 sq. ft. 6,534 sq. ft. $84
2018-02-26 Single Family Mediterranean 841 Terraza Irving, TX 75039 $550,000 3,793 sq. ft. 5,663 sq. ft. $145
2018-02-26 Single Family Mediterranean 4786 Byron Circle Irving, TX 75038 $1,675,000 5,090 sq. ft. 10,454 sq. ft. $329
2018-02-26 Single Family 683 Brookstone Drive Irving, TX 75039 $749,000 3,818 sq. ft. 6,098 sq. ft. $196
2018-02-26 Single Family Traditional 4127 Lassen Lane Irving, TX 75063 $729,909 3,991 sq. ft. 7,841 sq. ft. $183
2018-02-26 Single Family Traditional 3434 Wingren Drive Irving, TX 75062 $758,000 4,867 sq. ft. 12,197 sq. ft. $156
2018-02-26 Single Family 1905 Cottonwood Valley Circle Irving, TX 75038 $2,600,000 10,000 sq. ft. 15,682 sq. ft. $260
2018-02-26 Single Family Traditional 1805 Driskill Drive Irving, TX 75038 $695,000 4,084 sq. ft. 14,375 sq. ft. $170
2018-02-26 Single Family Mediterranean 615 Lake Point Drive Irving, TX 75039 $1,100,000 5,550 sq. ft. 12,632 sq. ft. $198
2018-02-26 Single Family Traditional 643 Lake Point Drive Irving, TX 75039 $1,225,000 6,008 sq. ft. 13,504 sq. ft. $204
2018-02-26 Single Family Traditional 2701 Dames Irving, TX 75063 $772,545 4,321 sq. ft. 7,405 sq. ft. $179
2018-02-26 Single Family Mediterranean 6434 Malaga Irving, TX 75039 $385,900 1,736 sq. ft. 4,356 sq. ft. $222
2018-02-26 Single Family Traditional 1123 Pedernales Trail Irving, TX 75063 $385,000 2,926 sq. ft. 5,227 sq. ft. $132
2018-02-26 Single Family Traditional 6611 Deleon Street Irving, TX 75039 $416,000 2,655 sq. ft. 3,485 sq. ft. $157
2018-02-26 Single Family Traditional 6611 Escena Boulevard Irving, TX 75039 $446,000 2,995 sq. ft. 3,920 sq. ft. $149
2018-02-26 Single Family Traditional 1812 Rochelle Road Irving, TX 75062 $235,000 1,730 sq. ft. 7,405 sq. ft. $136
2018-02-26 Single Family 1749 Etain Road Irving, TX 75060 $185,000 1,500 sq. ft. 9,583 sq. ft. $123
2018-01-19 Single Family Traditional 300 Silverstone Lane Irving, TX 75063 $254,000 1,621 sq. ft. 2,178 sq. ft. $157
2018-01-18 Single Family Ranch 1003 Brookhollow Drive Irving, TX 75061 $174,900 1,730 sq. ft. 8,276 sq. ft. $101
2018-01-17 Single Family Traditional 2107 Hill Drive Irving, TX 75038 $480,000 3,693 sq. ft. 6,534 sq. ft. $130
2018-01-16 Single Family Traditional 4227 Prado Court Irving, TX 75063 $478,654 2,054 sq. ft. 5,663 sq. ft. $233
2018-01-16 Single Family Split Level; Traditional 730 Arbol Irving, TX 75039 $453,000 3,019 sq. ft. 4,356 sq. ft. $150
2018-01-15 Single Family 215 Irving Heights Drive Irving, TX 75060 $229,000 1,505 sq. ft. 6,098 sq. ft. $152
2018-01-15 Single Family Traditional 2617 Dames Lane Irving, TX 75063 $750,000 3,502 sq. ft. 13,939 sq. ft. $214
2018-01-15 Single Family 10201 Perkins Drive Irving, TX 75063 $339,700 2,422 sq. ft. 9,583 sq. ft. $140
2018-01-15 Single Family Traditional 3655 Crosby Street Irving, TX 75038 $409,000 2,757 sq. ft. 4,356 sq. ft. $148
2018-01-14 Single Family Traditional 1205 Valley Vista Drive Irving, TX 75063 $450,000 3,608 sq. ft. 5,227 sq. ft. $125
2018-01-09 Single Family Irving, TX $303,395 3,658 sq. ft. 10,019 sq. ft. $83
2018-01-09 Single Family Traditional 6322 Saddlebrook Way Irving, TX 75039 $550,445 3,289 sq. ft. 4,356 sq. ft. $167
2018-01-09 Single Family Traditional 6325 Saddlebrook Way Irving, TX 75039 $524,301 3,312 sq. ft. 4,356 sq. ft. $158
2018-01-09 Single Family Traditional 6321 Saddlebrook Way Irving, TX 75039 $489,765 2,396 sq. ft. 4,356 sq. ft. $204
2018-01-09 Single Family Traditional 555 Paddock Way Irving, TX 75039 $504,370 2,707 sq. ft. 4,792 sq. ft. $186
2018-01-08 Single Family Traditional 1131 Nursery Road Irving, TX 75060 $444,000 3,560 sq. ft. 14,810 sq. ft. $125
2018-01-08 Single Family Traditional 7235 Native Oak Lane Irving, TX 75063 $485,000 3,849 sq. ft. 9,148 sq. ft. $126
2018-01-03 Single Family Traditional 1414 Travis Circle Irving, TX 75038 $890,000 4,686 sq. ft. 16,553 sq. ft. $190
2018-01-03 Single Family Contemporary/Modern 3951 Yogi Way Irving, TX 75038 $541,000 3,955 sq. ft. 4,792 sq. ft. $137
2018-01-02 Single Family Traditional 551 Paddock Way Irving, TX 75039 $540,088 3,275 sq. ft. 4,792 sq. ft. $165
2018-01-02 Single Family Traditional 560 Paddock Way Irving, TX 75039 $542,019 3,832 sq. ft. 4,356 sq. ft. $141
2018-01-01 Single Family English 4774 Byron Circle Irving, TX 75038 $2,590,000 6,690 sq. ft. 27,007 sq. ft. $387
2017-12-26 Single Family Traditional 1844 Remington Drive Irving, TX 75063 $544,900 3,055 sq. ft. 4,792 sq. ft. $178
2017-12-18 Single Family Traditional 4207 Prado Court Irving, TX 75063 $492,366 2,167 sq. ft. 5,663 sq. ft. $227
2017-12-15 Single Family Traditional 2413 Creekside Circle Irving, TX 75063 $569,000 3,798 sq. ft. 12,197 sq. ft. $150
2017-12-14 Single Family Traditional 6935 Birch Creek Drive Irving, TX 75063 $495,447 2,886 sq. ft. 3,920 sq. ft. $172
2017-12-12 Single Family Traditional 5033 Province Place Irving, TX 75038 $419,990 2,779 sq. ft. 5,663 sq. ft. $151
2017-12-09 Single Family Traditional 1244 Tioga Drive Irving, TX 75063 $470,000 3,642 sq. ft. 4,792 sq. ft. $129
2017-12-08 Single Family Traditional 6931 Birch Creek Drive Irving, TX 75063 $502,385 3,172 sq. ft. 3,920 sq. ft. $158
2017-12-04 Single Family 2106 Red Oak Drive Irving, TX 75060 $169,900 1,537 sq. ft. 6,970 sq. ft. $111
2017-11-30 Single Family Contemporary/Modern 1604 Driskill Drive Irving, TX 75038 $628,000 3,171 sq. ft. 14,375 sq. ft. $198
2017-11-29 Single Family 4135 Buckner Avenue Irving, TX 75063 $704,999 3,892 sq. ft. 7,841 sq. ft. $181
2017-11-24 Single Family 2820 Clearbrook Drive Irving, TX 75062 $199,900 1,575 sq. ft. 7,841 sq. ft. $127
2017-11-18 Single Family 1406 Ben Drive Irving, TX 75061 $209,900 2,428 sq. ft. 17,860 sq. ft. $86
2017-11-14 Single Family Traditional 6804 Prompton Bend Irving, TX 75063 $480,528 2,646 sq. ft. 3,920 sq. ft. $182
2017-11-13 Single Family Traditional 735 Brookstone Drive Irving, TX 75039 $729,000 3,838 sq. ft. 6,970 sq. ft. $190
2017-11-13 Single Family Mediterranean; Traditional 4412 Windsor Ridge Drive Irving, TX 75038 $1,999,000 9,566 sq. ft. 18,295 sq. ft. $209
2017-11-13 Single Family Contemporary/Modern 7036 Comal Drive Irving, TX 75039 $499,900 3,021 sq. ft. 4,792 sq. ft. $165
2017-11-03 Single Family Traditional 609 Nursery Road Irving, TX 75061 $249,000 1,072 sq. ft. 24,829 sq. ft. $232
2017-11-03 Single Family Mediterranean 1408 Cottonwood Valley Court Irving, TX 75038 $885,000 4,695 sq. ft. 15,246 sq. ft. $188
2017-10-27 Single Family 4152 Buckner Avenue Irving, TX 75063 $702,556 3,732 sq. ft. 8,712 sq. ft. $188
2017-10-27 Single Family 4163 Audubon Drive Irving, TX 75063 $584,775 2,806 sq. ft. 5,663 sq. ft. $208
2017-10-19 Single Family 1504 Sunnybrook Drive Irving, TX 75061 $296,500 2,908 sq. ft. 11,761 sq. ft. $102
2017-10-16 Single Family 7952 Ashwood Lane Irving, TX 75063 $599,586 3,131 sq. ft. 6,534 sq. ft. $192
2017-10-16 Single Family 3441 Poinsettia Irving, TX 75038 $526,879 3,597 sq. ft. $146
2017-10-16 Single Family 3437 Poinsettia Irving, TX 75038 $515,764 3,124 sq. ft. $165
2017-10-12 Single Family Victorian 318 O Connor Road Irving, TX 75060 $245,000 1,330 sq. ft. 10,454 sq. ft. $184
2017-10-10 Single Family Traditional 1100 Travis Circle Irving, TX 75038 $799,000 5,322 sq. ft. 19,602 sq. ft. $150
2017-10-09 Single Family Traditional 600 Ginkgo Circle Irving, TX 75063 $579,900 4,449 sq. ft. 10,019 sq. ft. $130
2017-10-06 Single Family Traditional 6927 Birch Creek Drive Irving, TX 75063 $449,910 2,171 sq. ft. 3,920 sq. ft. $207
2017-10-02 Single Family Traditional 7308 Paluxy Drive Irving, TX 75039 $519,937 3,862 sq. ft. 9,148 sq. ft. $135
2017-09-30 Single Family Traditional 2070 Azalea Trail Irving, TX 75063 $645,000 4,977 sq. ft. 10,890 sq. ft. $130
2017-09-27 Single Family Traditional 6923 Birch Creek Drive Irving, TX 75063 $498,149 2,653 sq. ft. 3,920 sq. ft. $188
2017-09-20 Single Family Traditional; Tudor 648 Scenic Drive Irving, TX 75039 $930,000 4,663 sq. ft. 14,810 sq. ft. $199
2017-09-08 Single Family Contemporary/Modern 300 Tampico Street Irving, TX 75062 $949,000 9,636 sq. ft. 31,799 sq. ft. $98
2017-09-07 Single Family Mediterranean; Traditional 5731 Waterview Drive Irving, TX 75039 $937,500 3,558 sq. ft. 6,534 sq. ft. $263
2017-08-20 Single Family Traditional 5227 Montego Bay Drive Irving, TX 75038 $401,104 2,402 sq. ft. $167
2017-08-06 Single Family Traditional 10015 Sandbar Drive Irving, TX 75063 $649,900 3,930 sq. ft. 6,970 sq. ft. $165
2017-07-26 Single Family 211 Skystone Irving, TX 75038 $444,379 2,222 sq. ft. $200
2017-07-22 Single Family Traditional 1128 Anchor Terrace Irving, TX 75063 $689,000 4,074 sq. ft. 10,019 sq. ft. $169
2017-07-12 Single Family Traditional 7004 Comal Drive Irving, TX 75039 $500,000 3,447 sq. ft. 5,663 sq. ft. $145
2017-07-05 Single Family Traditional 7323 Saratoga Way Irving, TX 75063 $621,748 3,502 sq. ft. 7,841 sq. ft. $178
2017-07-03 Single Family Traditional 7705 Sumac Road Irving, TX 75063 $370,000 3,868 sq. ft. 9,583 sq. ft. $96
2017-06-30 Single Family Traditional 7916 Keeneland Court Irving, TX 75063 $508,900 3,173 sq. ft. 5,227 sq. ft. $160
2017-06-27 Single Family Traditional 1401 Travis Circle Irving, TX 75038 $699,999 3,642 sq. ft. 12,632 sq. ft. $192
2017-06-26 Single Family Traditional 1900 Anna Drive Irving, TX 75061 $245,000 2,733 sq. ft. 11,761 sq. ft. $90
2017-06-26 Single Family Traditional 2225 Yaupon Drive Irving, TX 75063 $444,900 3,998 sq. ft. 7,405 sq. ft. $111
2017-06-02 Single Family Traditional 7920 Keeneland Court Irving, TX 75063 $497,900 3,056 sq. ft. 4,792 sq. ft. $163
2017-05-18 Single Family Traditional 3608 Hathaway Court Irving, TX 75062 $494,990 3,244 sq. ft. 6,098 sq. ft. $153